Time;durP1;ratioP1;P1;durP2;ratioP2;P2;SDS_P1;SDS_P2;PMS_P1;PMS_P2;Temp;Humidity;BMP_temperature;BMP_pressure;BME280_temperature;BME280_humidity;BME280_pressure;Samples;Min_cycle;Max_cycle;Signal;HPM_P1;HPM_P2
2023/02/07 00:01:40;;;;;;;0.88;0.88;;;2.40;99.90;;;;;;6049838;23;20460;-81
2023/02/07 00:04:07;;;;;;;0.75;0.75;;;2.30;99.90;;;;;;6066338;23;20381;-81
2023/02/07 00:06:36;;;;;;;0.77;0.77;;;2.20;99.90;;;;;;6064592;23;20444;-81
2023/02/07 00:09:06;;;;;;;0.80;0.80;;;2.30;99.90;;;;;;6065330;23;20433;-81
2023/02/07 00:11:35;;;;;;;0.80;0.80;;;2.30;99.90;;;;;;6065976;23;20387;-81
2023/02/07 00:14:03;;;;;;;0.70;0.70;;;2.40;99.90;;;;;;6065436;23;20425;-80
2023/02/07 00:16:31;;;;;;;0.70;0.70;;;2.30;99.90;;;;;;6064427;23;20477;-82
2023/02/07 00:19:00;;;;;;;0.80;0.80;;;2.30;99.90;;;;;;6065569;23;20375;-80
2023/02/07 00:21:27;;;;;;;0.90;0.90;;;2.30;99.90;;;;;;6039815;23;20416;-80
2023/02/07 00:23:55;;;;;;;0.70;0.70;;;2.30;99.90;;;;;;6064645;23;20734;-79
2023/02/07 00:26:25;;;;;;;0.82;0.82;;;2.40;99.90;;;;;;6066363;23;20425;-80
2023/02/07 00:28:54;;;;;;;0.80;0.80;;;2.20;99.90;;;;;;6066411;23;20535;-81
2023/02/07 00:31:25;;;;;;;0.90;0.90;;;2.20;99.90;;;;;;6067539;23;20429;-80
2023/02/07 00:33:59;;;;;;;0.70;0.70;;;2.20;99.90;;;;;;6065605;23;20433;-79
2023/02/07 00:36:31;;;;;;;0.60;0.60;;;2.30;99.90;;;;;;6047150;23;20750;-80
2023/02/07 00:39:05;;;;;;;0.70;0.70;;;2.30;99.90;;;;;;6066413;23;20387;-80
2023/02/07 00:41:35;;;;;;;0.67;0.67;;;2.30;99.90;;;;;;6066472;23;20532;-80
2023/02/07 00:44:03;;;;;;;0.60;0.60;;;2.20;99.90;;;;;;6064695;23;20407;-80
2023/02/07 00:46:30;;;;;;;0.60;0.60;;;2.30;99.90;;;;;;6067270;23;20881;-80
2023/02/07 00:48:57;;;;;;;0.70;0.70;;;2.40;99.40;;;;;;6067578;23;20429;-80
2023/02/07 00:51:24;;;;;;;0.60;0.60;;;2.40;96.40;;;;;;6065965;23;20512;-80
2023/02/07 00:53:53;;;;;;;1.10;0.70;;;2.40;94.10;;;;;;6066975;23;20426;-80
2023/02/07 00:56:22;;;;;;;0.70;0.70;;;2.40;93.20;;;;;;6069487;23;20760;-80
2023/02/07 00:58:50;;;;;;;0.60;0.60;;;2.40;94.60;;;;;;6066299;23;20403;-79
2023/02/07 01:01:19;;;;;;;0.60;0.60;;;2.30;95.80;;;;;;6069993;23;20417;-80
2023/02/07 01:03:46;;;;;;;0.60;0.60;;;2.30;95.70;;;;;;6044275;23;20429;-80
2023/02/07 01:06:14;;;;;;;0.60;0.60;;;2.30;96.90;;;;;;6069783;23;20422;-79
2023/02/07 01:08:43;;;;;;;0.70;0.70;;;2.30;97.30;;;;;;6069432;23;20445;-79
2023/02/07 01:11:13;;;;;;;0.60;0.60;;;2.30;96.90;;;;;;6044198;23;20447;-80
2023/02/07 01:13:43;;;;;;;0.70;0.70;;;2.30;96.80;;;;;;6068353;23;20425;-80
2023/02/07 01:16:27;;;;;;;0.68;0.68;;;2.30;97.60;;;;;;6069057;23;20418;-80
2023/02/07 01:18:54;;;;;;;0.60;0.60;;;2.30;97.80;;;;;;6049303;23;20395;-79
2023/02/07 01:21:26;;;;;;;0.60;0.60;;;2.40;98.20;;;;;;6070641;23;20524;-79
2023/02/07 01:23:55;;;;;;;1.30;0.63;;;2.40;95.10;;;;;;6046853;23;20744;-79
2023/02/07 01:26:24;;;;;;;0.70;0.70;;;2.40;92.00;;;;;;6071264;23;20387;-79
2023/02/07 01:28:53;;;;;;;0.60;0.60;;;2.40;92.10;;;;;;6071388;23;20481;-80
2023/02/07 01:31:31;;;;;;;0.70;0.70;;;2.50;92.10;;;;;;6046217;23;21222;-79
2023/02/07 01:34:00;;;;;;;0.70;0.70;;;2.40;93.80;;;;;;6048243;23;20387;-79
2023/02/07 01:36:29;;;;;;;0.60;0.60;;;2.40;96.00;;;;;;6070184;23;20870;-79
2023/02/07 01:38:58;;;;;;;0.60;0.60;;;2.30;95.80;;;;;;6070622;23;20427;-79
2023/02/07 01:41:28;;;;;;;0.60;0.60;;;2.30;95.60;;;;;;6069629;23;20436;-79
2023/02/07 01:44:25;;;;;;;0.60;0.60;;;2.30;95.80;;;;;;6070246;23;20383;-79
2023/02/07 01:46:55;;;;;;;0.60;0.60;;;2.30;95.90;;;;;;6071203;23;20375;-79
2023/02/07 01:49:31;;;;;;;0.63;0.63;;;2.30;94.40;;;;;;6046438;23;20474;-79
2023/02/07 01:52:12;;;;;;;0.60;0.60;;;2.40;93.30;;;;;;6047664;23;20433;-79
2023/02/07 01:54:43;;;;;;;0.70;0.70;;;2.20;93.70;;;;;;6044847;23;20839;-79
2023/02/07 01:57:16;;;;;;;0.70;0.70;;;2.30;92.30;;;;;;6047527;23;20399;-79
2023/02/07 01:59:44;;;;;;;0.60;0.60;;;2.30;91.60;;;;;;6067823;23;20423;-79
